Time;durP1;ratioP1;P1;durP2;ratioP2;P2;SDS_P1;SDS_P2;PMS_P1;PMS_P2;Temp;Humidity;BMP_temperature;BMP_pressure;BME280_temperature;BME280_humidity;BME280_pressure;Samples;Min_cycle;Max_cycle;Signal;HPM_P1;HPM_P2
2022/02/03 00:01:33;;;;;;;1.55;0.35;;;;;;;19.72;48.35;101065.38;5033486;28;20053;-60
2022/02/03 00:04:08;;;;;;;0.90;0.35;;;;;;;19.71;48.14;101066.41;5033560;28;20028;-60
2022/02/03 00:06:49;;;;;;;1.02;0.30;;;;;;;19.73;48.83;101061.63;5033289;28;20420;-59
2022/02/03 00:25:40;;;;;;;0.40;0.20;;;;;;;19.61;47.92;101076.66;4971767;28;20442;-59
2022/02/03 00:28:14;;;;;;;2.28;0.40;;;;;;;19.56;48.13;101079.06;4972047;28;20058;-59
2022/02/03 00:33:18;;;;;;;1.08;0.20;;;;;;;19.49;48.63;101079.72;4971036;28;20038;-59
2022/02/03 00:49:21;;;;;;;1.17;0.35;;;;;;;19.37;48.75;101088.44;5007527;28;20071;-60
2022/02/03 00:51:49;;;;;;;0.57;0.20;;;;;;;19.37;48.38;101085.69;5032674;28;20029;-59
2022/02/03 00:54:19;;;;;;;0.70;0.28;;;;;;;19.32;48.77;101085.38;5032353;28;20121;-59
2022/02/03 00:56:52;;;;;;;1.70;0.30;;;;;;;19.37;48.54;101092.00;5032619;28;20025;-59
2022/02/03 01:00:00;;;;;;;0.45;0.15;;;;;;;19.31;49.16;101095.41;5032540;28;20017;-59
2022/02/03 01:02:28;;;;;;;1.23;0.30;;;;;;;19.31;48.38;101091.81;4955093;28;20039;-59
2022/02/03 01:04:57;;;;;;;1.30;0.30;;;;;;;19.28;48.55;101098.47;4971453;28;20590;-60
2022/02/03 01:07:24;;;;;;;0.95;0.45;;;;;;;19.27;48.16;101101.38;4971221;28;20405;-59
2022/02/03 01:10:06;;;;;;;0.90;0.20;;;;;;;19.25;48.46;101093.38;4971282;28;20463;-59
2022/02/03 01:21:25;;;;;;;1.55;0.40;;;;;;;19.16;48.77;101099.88;4951983;29;20023;-59
2022/02/03 01:34:57;;;;;;;1.65;0.30;;;;;;;19.15;48.52;101100.88;4894692;29;20068;-59
2022/02/03 01:43:29;;;;;;;1.00;0.30;;;;;;;19.09;48.70;101087.91;4875998;29;20060;-59
2022/02/03 01:45:58;;;;;;;0.88;0.10;;;;;;;19.07;48.77;101079.06;4879954;29;20025;-59
2022/02/03 01:53:40;;;;;;;1.45;0.30;;;;;;;19.76;54.00;101069.44;4916418;29;20090;-59
2022/02/03 01:56:15;;;;;;;0.38;0.15;;;;;;;19.83;54.83;101070.47;4917203;29;20270;-60
2022/02/03 01:58:46;;;;;;;1.05;0.20;;;;;;;19.89;56.54;101066.19;4917090;29;20054;-59
2022/02/03 02:01:21;;;;;;;0.43;0.10;;;;;;;19.94;57.79;101058.31;4917126;29;20111;-59
2022/02/03 02:03:58;;;;;;;0.50;0.20;;;;;;;20.02;60.12;101061.88;4928099;29;20079;-59
2022/02/03 02:06:57;;;;;;;1.67;0.38;;;;;;;20.05;60.15;101066.97;4935977;29;20090;-59
2022/02/03 02:09:29;;;;;;;1.55;0.30;;;;;;;20.13;61.03;101071.53;4935895;29;20043;-60
2022/02/03 02:12:29;;;;;;;1.52;0.40;;;;;;;20.18;61.52;101069.13;4936093;29;20114;-59
2022/02/03 02:37:22;;;;;;;1.85;0.60;;;;;;;20.50;63.23;101049.03;5035133;28;20037;-59
2022/02/03 02:40:28;;;;;;;1.35;0.20;;;;;;;20.57;63.00;101049.13;5035055;28;20053;-59
2022/02/03 02:42:59;;;;;;;1.05;0.25;;;;;;;20.60;63.11;101056.97;5034821;28;20083;-59
2022/02/03 02:45:53;;;;;;;0.43;0.10;;;;;;;20.62;63.39;101055.75;5035233;28;20100;-60
2022/02/03 02:48:21;;;;;;;0.20;0.20;;;;;;;20.65;62.92;101063.56;5034880;28;20036;-59
2022/02/03 02:50:58;;;;;;;1.52;0.28;;;;;;;20.66;62.98;101068.03;5034583;28;20033;-59
2022/02/03 02:54:04;;;;;;;1.02;0.20;;;;;;;20.69;63.09;101067.66;5034552;28;20046;-60
2022/02/03 03:32:53;;;;;;;0.15;0.10;;;;;;;20.94;60.05;101053.81;5034192;28;20022;-59
2022/02/03 03:35:34;;;;;;;1.63;0.22;;;;;;;20.95;60.01;101052.78;5034161;28;20061;-60
2022/02/03 03:38:02;;;;;;;0.75;0.20;;;;;;;20.95;59.49;101055.50;5034112;28;20021;-59
2022/02/03 03:40:31;;;;;;;1.33;0.20;;;;;;;20.97;59.13;101058.91;5034092;28;20029;-60
2022/02/03 03:43:04;;;;;;;1.38;0.30;;;;;;;20.98;58.83;101055.13;5033965;28;20036;-59
2022/02/03 03:45:30;;;;;;;0.45;0.10;;;;;;;20.97;59.15;101058.91;5033749;28;20113;-59
2022/02/03 03:48:05;;;;;;;0.57;0.35;;;;;;;21.01;58.89;101054.78;5033953;28;20029;-59
2022/02/03 03:50:38;;;;;;;1.05;0.30;;;;;;;21.00;58.79;101053.94;5033141;28;20511;-60
2022/02/03 03:53:15;;;;;;;0.93;0.20;;;;;;;21.01;59.35;101052.06;5033506;28;20044;-60
2022/02/03 03:55:56;;;;;;;0.73;0.20;;;;;;;21.02;59.16;101056.50;5033488;28;20029;-60
2022/02/03 03:59:02;;;;;;;1.25;0.40;;;;;;;21.02;58.98;101059.22;5033578;28;20219;-60
2022/02/03 04:42:07;;;;;;;1.85;0.32;;;;;;;21.12;58.33;101057.06;5032925;28;20026;-59
2022/02/03 04:45:49;;;;;;;1.58;0.30;;;;;;;21.14;57.34;101065.09;5032390;28;20084;-59
2022/02/03 04:57:20;;;;;;;1.17;0.30;;;;;;;21.12;57.30;101070.75;4952244;29;20055;-60
2022/02/03 05:03:12;;;;;;;1.35;0.38;;;;;;;22.48;54.19;101082.25;4951879;29;20118;-59
2022/02/03 05:06:22;;;;;;;0.93;0.38;;;;;;;22.86;53.56;101068.38;4951921;29;20114;-59
2022/02/03 05:13:00;;;;;;;0.90;0.20;;;;;;;23.29;52.20;101065.56;4876256;29;20421;-60
2022/02/03 05:16:06;;;;;;;0.22;0.13;;;;;;;23.40;51.67;101067.78;4876177;29;20299;-60
2022/02/03 05:22:47;;;;;;;0.70;0.30;;;;;;;23.60;51.26;101077.03;4876006;29;20036;-59
2022/02/03 05:42:04;;;;;;;1.65;0.38;;;;;;;22.63;45.39;101092.31;4913765;29;20039;-59
2022/02/03 05:46:30;;;;;;;0.50;0.35;;;;;;;22.43;43.69;101094.81;4929596;29;20032;-59
2022/02/03 05:49:27;;;;;;;0.75;0.10;;;;;;;22.49;43.47;101100.38;4971763;28;20045;-60
2022/02/03 05:52:07;;;;;;;0.65;0.50;;;;;;;22.47;42.10;101102.47;5011478;28;20048;-59
2022/02/03 05:55:05;;;;;;;1.45;0.30;;;;;;;22.47;42.33;101102.47;5011950;28;20293;-60
2022/02/03 06:03:19;;;;;;;0.50;0.20;;;;;;;22.48;42.32;101104.16;5012312;28;19948;-60
2022/02/03 06:21:56;;;;;;;2.53;0.52;;;;;;;22.50;41.52;101112.19;4977829;28;20046;-59
2022/02/03 06:29:42;;;;;;;0.60;0.20;;;;;;;22.55;41.69;101108.88;4989833;28;20097;-60
2022/02/03 06:32:08;;;;;;;0.80;0.13;;;;;;;22.54;41.13;101124.47;4992787;28;20352;-60
2022/02/03 06:34:33;;;;;;;0.45;0.10;;;;;;;22.56;41.37;101122.41;4993287;28;20528;-60
2022/02/03 06:36:58;;;;;;;0.95;0.22;;;;;;;22.63;41.45;101127.94;4993324;28;20621;-60
2022/02/03 06:39:27;;;;;;;0.98;0.17;;;;;;;22.64;41.58;101119.53;4993289;28;20076;-59
2022/02/03 06:41:56;;;;;;;0.13;0.10;;;;;;;22.69;41.39;101116.22;4993495;28;20034;-60
2022/02/03 06:44:27;;;;;;;0.65;0.13;;;;;;;22.66;41.33;101124.81;4993274;28;20038;-60
2022/02/03 06:46:55;;;;;;;0.25;0.17;;;;;;;22.66;41.53;101122.91;4993285;28;20390;-60
2022/02/03 06:49:33;;;;;;;1.38;0.63;;;;;;;22.66;42.14;101106.47;4995004;28;20045;-60
2022/02/03 06:52:08;;;;;;;0.82;0.15;;;;;;;22.70;42.15;101107.81;5033808;28;20085;-60
2022/02/03 06:54:44;;;;;;;0.35;0.20;;;;;;;22.69;42.51;101116.22;5034567;28;20053;-60
2022/02/03 06:57:16;;;;;;;1.45;0.20;;;;;;;22.64;41.83;101108.56;5034727;28;20022;-60
2022/02/03 06:59:54;;;;;;;1.10;0.25;;;;;;;22.71;41.44;101114.13;5034687;28;20055;-59
2022/02/03 07:02:21;;;;;;;0.75;0.20;;;;;;;22.70;42.33;101115.19;5034712;28;20036;-59
2022/02/03 07:04:46;;;;;;;1.38;0.40;;;;;;;22.69;41.81;101110.75;5034621;28;20120;-59
2022/02/03 07:07:16;;;;;;;1.92;0.50;;;;;;;22.74;42.52;101124.72;5034436;28;20104;-59
2022/02/03 07:09:44;;;;;;;0.55;0.10;;;;;;;22.64;42.18;101124.16;5034432;28;20029;-59
2022/02/03 07:12:10;;;;;;;0.68;0.30;;;;;;;22.69;42.49;101127.19;5034549;28;20034;-60
2022/02/03 07:14:36;;;;;;;0.77;0.30;;;;;;;22.68;42.43;101125.50;5034298;28;20086;-60
2022/02/03 07:17:03;;;;;;;1.70;0.30;;;;;;;22.71;42.10;101131.44;5034303;28;20431;-60
2022/02/03 07:19:29;;;;;;;1.85;0.28;;;;;;;22.66;41.96;101135.78;5033925;28;20051;-60
2022/02/03 07:21:54;;;;;;;1.25;0.30;;;;;;;22.70;41.69;101134.38;5034726;28;20040;-60
2022/02/03 07:24:19;;;;;;;0.90;0.25;;;;;;;22.73;42.09;101136.72;5034266;28;20017;-60
2022/02/03 07:26:45;;;;;;;1.63;0.30;;;;;;;22.72;41.78;101138.59;5034215;28;20461;-60
2022/02/03 07:29:11;;;;;;;0.47;0.10;;;;;;;22.69;42.12;101135.41;5034213;28;20029;-59
2022/02/03 07:31:37;;;;;;;0.40;0.10;;;;;;;22.70;42.24;101142.59;5016242;28;20028;-60
2022/02/03 07:34:09;;;;;;;1.05;0.30;;;;;;;22.72;41.39;101137.75;5034184;28;20033;-60
2022/02/03 07:36:35;;;;;;;0.80;0.30;;;;;;;22.73;41.91;101139.47;5033784;28;20133;-60
2022/02/03 07:39:02;;;;;;;1.50;0.30;;;;;;;22.77;42.18;101140.75;5033832;28;20028;-60
2022/02/03 07:41:27;;;;;;;0.85;0.30;;;;;;;22.74;42.45;101141.16;5033428;28;20425;-60
2022/02/03 07:43:53;;;;;;;1.60;0.25;;;;;;;22.77;42.34;101152.56;5034030;28;20025;-60
2022/02/03 07:46:18;;;;;;;1.42;0.30;;;;;;;22.74;42.07;101152.13;5033933;28;20296;-59
2022/02/03 07:48:43;;;;;;;1.08;0.20;;;;;;;22.74;41.88;101152.13;5033785;28;20215;-60
2022/02/03 07:51:09;;;;;;;1.30;0.22;;;;;;;22.73;42.24;101156.75;5033571;28;20061;-59
2022/02/03 07:53:34;;;;;;;1.50;0.43;;;;;;;22.76;42.39;101155.50;5033154;28;20037;-60
2022/02/03 07:55:59;;;;;;;0.28;0.10;;;;;;;22.79;41.97;101155.13;5033720;28;20032;-60
2022/02/03 07:58:24;;;;;;;0.85;0.10;;;;;;;22.81;42.25;101155.78;5033537;28;20416;-60
2022/02/03 08:00:50;;;;;;;1.55;0.20;;;;;;;22.78;42.44;101153.41;5033570;28;20032;-59
2022/02/03 08:03:15;;;;;;;0.80;0.20;;;;;;;22.76;42.43;101155.50;5033454;28;20428;-59
2022/02/03 08:05:44;;;;;;;0.45;0.15;;;;;;;22.76;41.55;101164.59;5033402;28;20017;-60
2022/02/03 08:08:21;;;;;;;0.82;0.10;;;;;;;22.78;41.79;101158.91;5033540;28;20040;-60
2022/02/03 08:10:50;;;;;;;0.35;0.00;;;;;;;22.79;42.00;101155.13;5033378;28;20437;-59
2022/02/03 08:13:27;;;;;;;1.05;0.15;;;;;;;22.75;42.07;101159.28;5033318;28;20029;-60
2022/02/03 08:16:01;;;;;;;0.52;0.20;;;;;;;22.78;42.22;101162.50;5033333;28;20029;-60
2022/02/03 08:18:27;;;;;;;1.10;0.10;;;;;;;22.78;41.60;101159.75;5033186;28;20033;-59
2022/02/03 08:20:59;;;;;;;0.20;0.10;;;;;;;22.77;42.23;101163.53;5032929;28;20485;-60
2022/02/03 08:26:09;;;;;;;2.28;0.30;;;;;;;22.76;42.36;101175.53;5033516;28;20025;-60
2022/02/03 08:28:58;;;;;;;1.33;0.20;;;;;;;22.78;41.78;101165.22;5032932;28;20094;-60
2022/02/03 08:31:38;;;;;;;1.35;0.22;;;;;;;22.75;41.97;101167.50;5032996;28;20483;-60
2022/02/03 08:34:04;;;;;;;1.00;0.10;;;;;;;22.76;41.85;101172.81;5033244;28;20114;-60
2022/02/03 08:36:34;;;;;;;1.27;0.20;;;;;;;22.79;41.89;101179.78;5032678;28;20100;-60
2022/02/03 08:39:04;;;;;;;0.68;0.20;;;;;;;22.79;42.30;101183.38;5032881;28;20030;-60
2022/02/03 08:41:29;;;;;;;0.88;0.25;;;;;;;22.82;42.10;101171.19;5032730;28;20025;-59
2022/02/03 08:43:54;;;;;;;1.27;0.43;;;;;;;22.78;41.58;101169.88;5033200;28;20029;-59
2022/02/03 08:46:24;;;;;;;1.33;0.20;;;;;;;22.77;42.11;101170.91;5032786;28;20412;-59
2022/02/03 08:48:50;;;;;;;1.88;0.60;;;;;;;22.80;41.68;101174.09;5032989;28;20484;-59
2022/02/03 08:51:16;;;;;;;1.52;0.30;;;;;;;22.81;42.04;101164.00;5032555;28;20045;-60
2022/02/03 08:53:54;;;;;;;0.52;0.15;;;;;;;22.81;42.24;101164.00;5032106;28;20374;-59
2022/02/03 09:34:47;;;;;;;2.47;0.35;;;;;;;22.87;41.79;101200.81;4990627;28;20038;-59
2022/02/03 09:40:07;;;;;;;0.57;0.28;;;;;;;22.91;41.19;101207.59;5032043;28;20030;-60
2022/02/03 09:56:06;;;;;;;1.35;0.25;;;;;;;22.88;41.10;101233.50;5031935;28;20025;-60
2022/02/03 09:58:40;;;;;;;0.10;0.05;;;;;;;22.89;41.13;101231.63;5031809;28;20079;-60
2022/02/03 10:01:09;;;;;;;1.95;0.55;;;;;;;22.85;41.69;101236.63;5031987;28;20028;-59
2022/02/03 10:06:24;;;;;;;1.25;0.20;;;;;;;22.87;41.81;101237.28;5035112;28;20017;-60
2022/02/03 10:08:53;;;;;;;1.05;0.40;;;;;;;22.83;41.58;101227.72;5035743;28;20048;-60
2022/02/03 10:11:19;;;;;;;2.50;0.50;;;;;;;22.84;41.63;101228.56;5035565;28;20108;-60
2022/02/03 10:13:52;;;;;;;1.38;0.20;;;;;;;22.80;41.43;101230.81;5035583;28;20032;-60
2022/02/03 10:16:20;;;;;;;0.77;0.10;;;;;;;22.89;41.83;101229.72;5035511;28;20036;-60
2022/02/03 10:18:48;;;;;;;0.82;0.15;;;;;;;22.92;41.22;101225.75;5035807;28;20021;-59
2022/02/03 10:21:16;;;;;;;0.60;0.10;;;;;;;22.93;41.50;101231.03;5034565;28;20522;-59
2022/02/03 10:24:19;;;;;;;1.17;0.43;;;;;;;22.87;41.18;101223.59;5035353;28;20056;-59
2022/02/03 10:26:50;;;;;;;0.50;0.15;;;;;;;22.88;41.18;101219.81;4974018;28;20061;-59
2022/02/03 10:29:20;;;;;;;1.27;0.63;;;;;;;22.88;41.83;101222.53;4974174;28;20039;-60
2022/02/03 10:31:47;;;;;;;0.45;0.10;;;;;;;22.86;41.67;101215.56;4974040;28;20030;-60
2022/02/03 10:34:20;;;;;;;1.60;0.20;;;;;;;22.94;41.19;101216.28;4974303;28;20038;-60
2022/02/03 10:43:09;;;;;;;0.95;0.15;;;;;;;22.86;41.80;101208.19;4974136;28;20463;-60
2022/02/03 10:50:49;;;;;;;0.52;0.13;;;;;;;22.90;41.46;101211.38;4958092;28;20043;-60
2022/02/03 11:06:06;;;;;;;1.00;0.20;;;;;;;22.93;41.97;101200.88;5015202;28;20026;-59
2022/02/03 11:08:48;;;;;;;1.08;0.28;;;;;;;22.94;41.85;101197.09;5014633;28;20109;-59
2022/02/03 11:11:19;;;;;;;0.98;0.20;;;;;;;22.91;41.78;101202.97;5014830;28;20021;-60
2022/02/03 11:13:45;;;;;;;1.23;0.20;;;;;;;22.92;42.03;101201.91;5014911;28;20370;-60
2022/02/03 11:16:11;;;;;;;0.70;0.28;;;;;;;22.93;42.14;101200.88;5014001;28;20034;-59
2022/02/03 11:18:39;;;;;;;1.05;0.32;;;;;;;22.94;41.04;101210.78;5014433;28;20036;-59
2022/02/03 11:21:04;;;;;;;0.68;0.10;;;;;;;22.96;41.11;101205.97;5033690;28;20116;-59
2022/02/03 11:23:36;;;;;;;1.95;0.32;;;;;;;22.91;41.66;101202.97;5034157;28;20124;-60
2022/02/03 11:26:10;;;;;;;0.95;0.20;;;;;;;22.92;41.06;101199.16;5034404;28;20026;-60
2022/02/03 11:44:20;;;;;;;0.73;0.20;;;;;;;22.95;41.36;101209.75;5034265;28;20029;-59
2022/02/03 11:47:06;;;;;;;2.05;0.28;;;;;;;22.92;41.53;101215.63;5033663;28;20285;-60
2022/02/03 11:57:56;;;;;;;0.68;0.20;;;;;;;22.96;41.55;101216.94;5033838;28;20029;-60
2022/02/03 12:03:27;;;;;;;1.10;0.55;;;;;;;22.94;41.43;101216.28;5033773;28;20120;-59
2022/02/03 12:11:42;;;;;;;0.55;0.13;;;;;;;22.94;41.60;101219.00;5033750;28;20033;-59
2022/02/03 12:14:21;;;;;;;0.60;0.10;;;;;;;22.96;42.05;101221.56;5033311;28;20095;-60
2022/02/03 12:29:25;;;;;;;0.98;0.28;;;;;;;22.95;41.70;101215.22;5033292;28;20030;-60
2022/02/03 12:42:42;;;;;;;0.52;0.20;;;;;;;22.93;41.33;101206.34;5033225;28;20047;-59
2022/02/03 12:45:23;;;;;;;0.90;0.15;;;;;;;22.93;41.65;101206.34;5032899;28;20469;-60
2022/02/03 12:47:52;;;;;;;1.52;0.32;;;;;;;22.95;41.77;101209.75;5032758;28;20025;-60
2022/02/03 12:50:22;;;;;;;1.33;0.30;;;;;;;22.93;41.43;101209.09;5032531;28;20409;-61
2022/02/03 12:52:48;;;;;;;1.20;0.25;;;;;;;22.93;41.29;101211.84;5032393;28;20156;-59
2022/02/03 12:55:28;;;;;;;2.38;0.85;;;;;;;22.98;41.82;101209.34;5032618;28;20033;-60
2022/02/03 12:57:54;;;;;;;1.70;0.43;;;;;;;22.99;41.91;101210.19;5032770;28;20021;-60
2022/02/03 13:00:33;;;;;;;0.30;0.13;;;;;;;22.96;41.82;101213.34;5032485;28;20064;-60
2022/02/03 13:03:02;;;;;;;1.08;0.15;;;;;;;23.01;41.96;101208.13;5032592;28;20426;-59
2022/02/03 13:05:32;;;;;;;4.45;0.25;;;;;;;22.95;41.72;101209.75;5032417;28;20025;-60
2022/02/03 13:07:59;;;;;;;1.08;0.20;;;;;;;22.95;41.80;101211.63;5032865;28;20091;-60
2022/02/03 13:10:28;;;;;;;0.93;0.52;;;;;;;22.96;41.80;101208.69;5014649;28;20461;-60
2022/02/03 13:13:01;;;;;;;1.00;0.30;;;;;;;23.01;41.16;101209.00;5032537;28;20029;-60
2022/02/03 13:15:38;;;;;;;0.82;0.38;;;;;;;22.95;41.43;101198.78;5032307;28;20033;-59
2022/02/03 13:18:13;;;;;;;0.20;0.10;;;;;;;22.92;41.39;101193.69;5032490;28;20025;-60
2022/02/03 13:20:47;;;;;;;1.02;0.30;;;;;;;22.92;41.84;101195.59;5031870;28;20025;-60
2022/02/03 13:23:18;;;;;;;1.35;0.38;;;;;;;22.93;41.79;101195.38;5032418;28;20037;-60
2022/02/03 13:26:14;;;;;;;1.15;0.40;;;;;;;23.01;41.30;101192.53;5032551;28;20314;-59
2022/02/03 13:29:01;;;;;;;0.90;0.30;;;;;;;22.92;41.78;101192.84;5032156;28;20537;-60
2022/02/03 13:31:43;;;;;;;0.35;0.30;;;;;;;23.00;41.62;101185.34;5014484;28;20453;-60
2022/02/03 13:34:24;;;;;;;1.42;0.30;;;;;;;23.00;41.67;101185.34;5032358;28;20499;-60
2022/02/03 13:36:56;;;;;;;0.47;0.22;;;;;;;22.96;41.97;101178.53;5031863;28;20098;-59
2022/02/03 13:39:36;;;;;;;1.10;0.10;;;;;;;22.91;41.22;101181.03;5032362;28;20064;-59
2022/02/03 13:42:03;;;;;;;1.65;0.50;;;;;;;22.92;42.03;101177.25;5018562;28;20032;-60
2022/02/03 13:44:30;;;;;;;2.47;0.30;;;;;;;22.96;41.51;101188.66;5036027;28;20056;-60
2022/02/03 13:46:55;;;;;;;1.10;0.13;;;;;;;22.97;41.57;101190.34;5036262;28;20469;-60
2022/02/03 13:49:22;;;;;;;0.95;0.20;;;;;;;22.99;41.75;101180.88;5035793;28;20036;-60
2022/02/03 13:52:07;;;;;;;0.77;0.30;;;;;;;22.95;41.72;101182.34;5036344;28;20092;-60
2022/02/03 14:13:05;;;;;;;1.60;0.30;;;;;;;22.97;41.74;101199.44;5027555;28;20040;-60
2022/02/03 14:15:18;;;;;;;2.00;0.38;;;;;;;23.00;41.25;101211.91;5029730;28;20029;-60
2022/02/03 14:20:40;;;;;;;0.73;0.23;;;;;;;22.99;41.51;101207.47;5020035;28;20036;-59
2022/02/03 14:28:19;;;;;;;1.17;0.10;;;;;;;22.99;41.70;101205.56;5032785;28;20052;-60
2022/02/03 14:30:48;;;;;;;0.95;0.30;;;;;;;23.03;41.52;101198.69;5033644;28;20460;-59
2022/02/03 14:33:22;;;;;;;0.98;0.22;;;;;;;22.99;41.76;101200.09;5031392;28;20057;-60
2022/02/03 14:35:48;;;;;;;2.13;0.65;;;;;;;23.01;41.46;101192.53;5031046;28;20029;-60
2022/02/03 14:38:21;;;;;;;0.35;0.20;;;;;;;22.99;42.14;101194.59;5018969;28;20029;-60
2022/02/03 14:41:06;;;;;;;1.08;0.20;;;;;;;23.03;40.93;101195.09;5028843;28;20372;-60
2022/02/03 14:43:31;;;;;;;1.33;0.30;;;;;;;23.02;41.09;101193.41;5026859;28;20037;-60
2022/02/03 14:45:58;;;;;;;1.83;0.38;;;;;;;23.00;41.57;101184.47;5025221;28;20040;-60
2022/02/03 14:48:24;;;;;;;1.00;0.30;;;;;;;23.00;41.85;101185.34;5032774;28;20025;-60
2022/02/03 14:50:50;;;;;;;0.77;0.30;;;;;;;22.99;41.49;101177.31;5034336;28;20026;-60
2022/02/03 14:53:29;;;;;;;1.75;0.32;;;;;;;23.01;41.75;101191.66;5031319;28;20041;-60
2022/02/03 14:58:39;;;;;;;0.50;0.10;;;;;;;22.97;41.77;101185.72;5034670;28;20036;-60
2022/02/03 15:01:04;;;;;;;1.45;0.32;;;;;;;23.05;40.82;101166.41;5034850;28;20109;-60
2022/02/03 15:03:31;;;;;;;1.17;0.40;;;;;;;23.00;41.73;101177.09;5034619;28;20108;-60
2022/02/03 15:06:02;;;;;;;1.55;0.43;;;;;;;23.02;41.29;101171.44;5034789;28;20104;-60
2022/02/03 15:08:54;;;;;;;1.60;0.28;;;;;;;22.97;41.40;101162.94;5034552;28;20022;-59
2022/02/03 15:11:27;;;;;;;0.13;0.05;;;;;;;22.98;41.54;101170.97;5034438;28;20036;-60
2022/02/03 15:13:52;;;;;;;0.50;0.25;;;;;;;23.02;41.16;101163.22;5034657;28;20029;-60
2022/02/03 15:16:18;;;;;;;3.40;0.88;;;;;;;22.96;40.94;101151.13;5034538;28;20469;-60
2022/02/03 15:18:43;;;;;;;1.10;0.28;;;;;;;23.00;41.32;101152.44;5033926;28;20056;-59
2022/02/03 15:21:10;;;;;;;1.15;0.30;;;;;;;22.97;41.78;101147.34;5034683;28;20021;-60
2022/02/03 15:23:36;;;;;;;1.92;0.60;;;;;;;22.98;41.40;101146.28;5034185;28;20030;-60
2022/02/03 15:26:02;;;;;;;0.25;0.10;;;;;;;23.02;41.24;101150.38;5034660;28;20396;-60
2022/02/03 15:28:28;;;;;;;0.82;0.15;;;;;;;23.01;41.04;101148.66;5034228;28;20033;-60
2022/02/03 15:30:54;;;;;;;1.05;0.20;;;;;;;22.92;41.64;101149.81;5034290;28;20492;-60
2022/02/03 15:33:24;;;;;;;1.77;0.40;;;;;;;23.01;41.71;101140.44;5034168;28;20057;-60
2022/02/03 15:35:53;;;;;;;3.13;0.30;;;;;;;23.03;41.21;101141.09;5034049;28;20026;-60
2022/02/03 15:38:21;;;;;;;0.68;0.10;;;;;;;23.03;41.36;101143.84;5034168;28;20037;-60
2022/02/03 15:40:48;;;;;;;0.40;0.13;;;;;;;23.02;41.38;101155.84;5033780;28;20022;-60
2022/02/03 15:45:48;;;;;;;0.55;0.22;;;;;;;22.99;41.04;101150.72;5034211;28;20108;-60
2022/02/03 15:56:44;;;;;;;1.23;0.20;;;;;;;23.01;41.39;101181.56;5033912;28;20031;-60
2022/02/03 16:18:06;;;;;;;1.25;0.30;;;;;;;23.02;40.96;101168.72;4933512;29;20039;-59
2022/02/03 16:20:39;;;;;;;1.13;0.20;;;;;;;23.03;41.68;101156.69;4933512;29;20082;-60
2022/02/03 16:52:44;;;;;;;1.38;0.40;;;;;;;22.99;41.36;101120.56;5032445;28;20178;-60
2022/02/03 16:55:14;;;;;;;1.63;0.13;;;;;;;23.03;41.52;101121.06;5032768;28;20488;-59
2022/02/03 16:57:39;;;;;;;1.10;0.55;;;;;;;23.06;41.60;101118.75;5032437;28;20057;-59
2022/02/03 17:00:10;;;;;;;0.80;0.22;;;;;;;23.06;41.21;101113.28;5032763;28;20429;-60
2022/02/03 17:02:37;;;;;;;1.38;0.30;;;;;;;23.01;41.38;101114.88;5032451;28;20391;-59
2022/02/03 17:05:02;;;;;;;2.75;0.40;;;;;;;23.03;41.11;101118.31;5032634;28;20428;-60
2022/02/03 17:07:28;;;;;;;0.43;0.10;;;;;;;23.05;41.53;101132.66;5032439;28;20083;-59
2022/02/03 17:09:53;;;;;;;0.93;0.20;;;;;;;23.03;41.23;101124.63;5032640;28;20025;-60
2022/02/03 17:12:19;;;;;;;0.70;0.50;;;;;;;23.06;41.85;101124.25;5032508;28;20029;-59
2022/02/03 17:14:45;;;;;;;1.35;0.30;;;;;;;23.03;41.09;101135.63;5031680;28;20465;-60
2022/02/03 17:17:11;;;;;;;0.57;0.20;;;;;;;23.04;41.37;101131.81;5032277;28;20038;-60
2022/02/03 17:19:37;;;;;;;2.30;0.40;;;;;;;23.08;41.88;101133.13;5031795;28;20029;-60
2022/02/03 17:22:04;;;;;;;0.50;0.20;;;;;;;23.06;41.79;101135.22;5032483;28;20461;-60
2022/02/03 17:24:29;;;;;;;1.52;0.38;;;;;;;23.02;41.67;101128.44;5032156;28;20067;-59
2022/02/03 17:29:36;;;;;;;0.80;0.20;;;;;;;23.05;41.96;101110.72;5032504;28;20053;-60
2022/02/03 17:32:22;;;;;;;0.57;0.10;;;;;;;23.02;41.56;101111.97;5032451;28;20053;-59
2022/02/03 18:31:04;;;;;;;1.40;0.47;;;;;;;23.07;41.24;101035.44;5013310;28;20516;-60
2022/02/03 18:50:33;;;;;;;1.48;0.30;;;;;;;23.02;41.57;101024.25;4887014;29;20769;-60
2022/02/03 18:53:09;;;;;;;1.00;0.20;;;;;;;23.01;40.95;101021.66;4897220;29;20425;-60
2022/02/03 19:14:46;;;;;;;1.30;0.40;;;;;;;23.08;41.10;101012.47;4897219;29;20584;-60
2022/02/03 19:59:20;;;;;;;1.42;0.28;;;;;;;23.06;41.35;100967.94;5033913;28;20041;-59
2022/02/03 20:06:18;;;;;;;;;;;;;;;23.05;41.82;100977.22;5034463;28;20393;-59
2022/02/03 20:08:54;;;;;;;1.20;0.30;;;;;;;23.10;41.48;100971.97;5033467;28;19955;-59
2022/02/03 20:11:22;;;;;;;2.08;0.57;;;;;;;23.07;41.97;100966.91;5033260;28;20033;-59
2022/02/03 20:13:47;;;;;;;0.82;0.22;;;;;;;23.09;41.82;100959.31;5033415;28;20053;-60
2022/02/03 20:16:18;;;;;;;1.30;0.32;;;;;;;23.10;41.16;100960.16;5033532;28;20060;-59
2022/02/03 20:18:43;;;;;;;0.52;0.28;;;;;;;23.05;41.98;100962.66;5032925;28;20029;-60
2022/02/03 20:21:08;;;;;;;0.38;0.10;;;;;;;23.13;41.84;100956.16;5033347;28;20029;-60
2022/02/03 20:23:39;;;;;;;1.38;0.45;;;;;;;23.10;41.58;100955.53;5033091;28;20033;-59
2022/02/03 20:26:05;;;;;;;1.35;0.20;;;;;;;23.09;41.79;100953.84;5033372;28;20049;-59
2022/02/03 20:28:30;;;;;;;2.25;0.32;;;;;;;23.05;41.68;100963.50;5033021;28;20069;-59
2022/02/03 20:30:56;;;;;;;1.05;0.30;;;;;;;23.10;41.21;100969.22;5033229;28;20044;-59
2022/02/03 20:33:21;;;;;;;0.50;0.20;;;;;;;23.07;42.08;100955.09;5015298;28;20064;-59
2022/02/03 20:35:47;;;;;;;0.85;0.20;;;;;;;23.10;41.33;100961.00;5033240;28;20014;-59
2022/02/03 20:38:15;;;;;;;1.33;0.40;;;;;;;23.10;41.52;100950.03;5033054;28;20071;-59
2022/02/03 20:40:42;;;;;;;1.42;0.30;;;;;;;23.13;41.53;100947.94;5032867;28;20025;-59
2022/02/03 20:43:07;;;;;;;1.25;0.30;;;;;;;23.13;42.01;100948.78;5033023;28;20084;-60
2022/02/03 20:45:33;;;;;;;2.45;0.43;;;;;;;23.09;41.77;100944.75;5032766;28;20033;-59
2022/02/03 20:47:58;;;;;;;1.27;0.20;;;;;;;23.09;41.74;100948.34;5032756;28;20041;-59
2022/02/03 20:50:23;;;;;;;0.47;0.30;;;;;;;23.09;42.02;100953.84;5031904;28;20026;-59
2022/02/03 20:52:49;;;;;;;1.65;0.32;;;;;;;23.09;42.03;100942.88;5032584;28;20376;-59
2022/02/03 20:55:16;;;;;;;1.20;0.40;;;;;;;23.16;42.04;100942.91;5015049;28;20053;-59
2022/02/03 20:57:42;;;;;;;1.65;0.20;;;;;;;23.09;41.56;100936.53;5032525;28;20384;-59
2022/02/03 21:02:46;;;;;;;0.63;0.20;;;;;;;23.10;40.98;100928.09;5032805;28;20229;-59
2022/02/03 21:05:16;;;;;;;0.52;0.20;;;;;;;23.10;41.22;100922.63;5032573;28;20022;-59
2022/02/03 21:07:43;;;;;;;1.25;0.10;;;;;;;23.11;41.22;100921.56;5032458;28;20066;-59
2022/02/03 21:10:12;;;;;;;0.88;0.40;;;;;;;23.06;41.21;100920.50;5032636;28;20029;-60
2022/02/03 21:12:38;;;;;;;2.40;0.30;;;;;;;23.13;41.76;100917.78;5032353;28;20021;-59
2022/02/03 21:15:06;;;;;;;1.95;0.20;;;;;;;23.13;41.58;100920.53;5032487;28;20028;-60
2022/02/03 21:17:32;;;;;;;0.60;0.35;;;;;;;23.09;41.50;100914.59;5031981;28;20380;-60
2022/02/03 21:20:08;;;;;;;0.77;0.38;;;;;;;23.10;41.33;100919.88;5032635;28;20025;-59
2022/02/03 21:22:37;;;;;;;0.65;0.20;;;;;;;23.11;42.33;100913.34;5032220;28;20062;-59
2022/02/03 21:25:14;;;;;;;1.00;0.20;;;;;;;23.09;41.44;100904.47;5032381;28;20028;-59
2022/02/03 21:27:39;;;;;;;2.28;0.43;;;;;;;23.08;41.93;100897.28;5032133;28;20018;-60
2022/02/03 21:30:07;;;;;;;2.22;0.73;;;;;;;23.10;41.50;100897.09;5032387;28;20476;-59
2022/02/03 21:32:32;;;;;;;1.00;0.30;;;;;;;23.09;41.68;100888.03;5032181;28;20423;-59
2022/02/03 21:34:58;;;;;;;3.00;0.50;;;;;;;23.14;42.16;100889.31;5032646;28;20079;-60
2022/02/03 21:37:23;;;;;;;2.13;0.38;;;;;;;23.12;41.91;100884.03;5032079;28;20040;-59
2022/02/03 21:39:54;;;;;;;3.03;0.50;;;;;;;23.13;42.02;100882.13;5032227;28;20148;-59
2022/02/03 21:42:19;;;;;;;1.25;0.30;;;;;;;23.09;41.87;100882.53;5032246;28;20034;-59
2022/02/03 21:44:44;;;;;;;1.15;0.40;;;;;;;23.11;41.80;100885.06;5032143;28;20401;-59
2022/02/03 21:47:10;;;;;;;1.25;0.30;;;;;;;23.13;41.66;100872.00;5031875;28;20032;-59